Time;durP1;ratioP1;P1;durP2;ratioP2;P2;SDS_P1;SDS_P2;PMS_P1;PMS_P2;Temp;Humidity;BMP_temperature;BMP_pressure;BME280_temperature;BME280_humidity;BME280_pressure;Samples;Min_cycle;Max_cycle;Signal;HPM_P1;HPM_P2
2023/06/28 00:01:10;;;;;;;6.13;2.80;;;;;;;16.68;81.43;101709.56;5058928;28;20642;-71
2023/06/28 00:03:37;;;;;;;8.23;2.70;;;;;;;16.56;82.20;101708.50;5056610;28;20028;-69
2023/06/28 00:06:02;;;;;;;4.88;2.60;;;;;;;16.55;82.38;101704.06;5057843;28;20296;-71
2023/06/28 00:08:28;;;;;;;6.90;2.83;;;;;;;16.56;82.13;101702.28;5058107;28;20434;-70
2023/06/28 00:10:55;;;;;;;5.72;2.75;;;;;;;16.55;81.61;101703.22;5049717;28;20450;-72
2023/06/28 00:13:20;;;;;;;6.95;2.97;;;;;;;16.60;84.75;101695.75;5057205;28;20617;-71
2023/06/28 00:15:46;;;;;;;4.90;2.97;;;;;;;16.62;82.40;101704.56;5053218;28;20590;-71
2023/06/28 00:18:11;;;;;;;6.03;2.58;;;;;;;16.65;85.49;101705.25;5053908;28;20052;-69
2023/06/28 00:20:40;;;;;;;6.50;2.83;;;;;;;16.59;81.68;101700.22;5050110;28;20024;-72
2023/06/28 00:23:06;;;;;;;4.95;2.78;;;;;;;16.60;82.84;101711.88;5052219;28;20032;-70
2023/06/28 00:25:32;;;;;;;7.05;3.08;;;;;;;16.71;84.28;101708.50;5060206;28;20387;-71
2023/06/28 00:27:57;;;;;;;5.78;3.25;;;;;;;16.75;82.89;101705.56;5053477;28;20020;-72
2023/06/28 00:30:22;;;;;;;5.82;3.22;;;;;;;16.78;82.62;101701.81;5059369;28;20387;-70
2023/06/28 00:32:48;;;;;;;6.32;3.05;;;;;;;16.77;80.23;101700.09;5054078;28;20064;-72
2023/06/28 00:35:13;;;;;;;6.93;3.00;;;;;;;16.66;80.42;101703.41;5057961;28;20024;-73
2023/06/28 00:37:39;;;;;;;7.38;3.55;;;;;;;16.48;79.48;101708.13;5060164;28;20413;-71
2023/06/28 00:40:06;;;;;;;6.18;3.13;;;;;;;16.44;78.69;101706.59;5051204;28;20025;-74
2023/06/28 00:42:32;;;;;;;6.03;2.80;;;;;;;16.39;78.32;101719.44;5047614;28;20467;-69
2023/06/28 00:44:58;;;;;;;3.78;2.38;;;;;;;16.35;76.04;101715.22;5060387;28;20082;-69
2023/06/28 00:47:25;;;;;;;5.80;2.67;;;;;;;16.36;81.24;101709.75;5059546;28;20028;-70
2023/06/28 00:49:53;;;;;;;4.72;2.20;;;;;;;16.55;80.74;101717.50;5053747;28;20439;-74
2023/06/28 00:52:18;;;;;;;4.57;2.10;;;;;;;16.63;79.36;101714.34;5060853;28;20043;-72
2023/06/28 00:54:44;;;;;;;4.57;2.15;;;;;;;16.68;80.98;101710.44;5057339;28;20028;-69
2023/06/28 00:57:10;;;;;;;4.88;2.90;;;;;;;16.61;77.62;101713.59;5059462;28;20037;-71
2023/06/28 00:59:36;;;;;;;6.05;2.75;;;;;;;16.59;80.35;101704.75;5065473;28;20063;-72
2023/06/28 01:02:04;;;;;;;6.30;3.25;;;;;;;16.66;82.16;101706.09;5065477;28;20029;-69
2023/06/28 01:04:30;;;;;;;8.27;3.03;;;;;;;16.76;83.22;101712.69;5049684;28;20036;-70
2023/06/28 01:06:59;;;;;;;6.88;3.17;;;;;;;16.77;83.19;101711.72;5052039;28;20383;-69
2023/06/28 01:09:27;;;;;;;6.85;3.08;;;;;;;16.75;82.05;101708.25;5058521;28;20032;-71
2023/06/28 01:11:54;;;;;;;6.10;3.20;;;;;;;16.74;82.83;101711.91;5056831;28;20098;-70
2023/06/28 01:14:22;;;;;;;7.72;3.80;;;;;;;16.70;83.19;101715.72;5064783;28;20642;-72
2023/06/28 01:16:54;;;;;;;4.93;3.03;;;;;;;16.73;82.43;101710.19;5058369;28;20501;-74
2023/06/28 01:19:25;;;;;;;7.45;3.00;;;;;;;16.60;80.72;101712.75;5053376;28;20127;-70
2023/06/28 01:21:55;;;;;;;4.72;2.60;;;;;;;16.59;79.75;101712.81;5053124;28;20039;-70
2023/06/28 01:24:21;;;;;;;4.47;2.42;;;;;;;16.61;80.44;101714.47;5063569;28;20037;-69
2023/06/28 01:26:52;;;;;;;10.65;2.83;;;;;;;16.67;82.30;101708.69;5059610;28;20024;-72
2023/06/28 01:29:21;;;;;;;6.35;3.22;;;;;;;16.67;84.27;101714.06;5058398;28;20056;-71
2023/06/28 01:31:50;;;;;;;6.13;3.50;;;;;;;16.68;87.13;101707.75;5059448;28;20339;-72
2023/06/28 01:34:16;;;;;;;9.77;5.18;;;;;;;16.72;87.87;101710.22;5057283;28;20490;-72
2023/06/28 01:36:42;;;;;;;5.75;4.07;;;;;;;16.72;89.28;101704.84;5053956;28;20028;-71
2023/06/28 01:39:07;;;;;;;6.28;3.55;;;;;;;16.76;89.63;101706.41;5063404;28;20025;-73
2023/06/28 01:41:33;;;;;;;5.82;2.83;;;;;;;16.68;86.98;101699.69;5060215;28;20028;-72
2023/06/28 01:43:58;;;;;;;5.43;2.80;;;;;;;16.76;87.57;101704.63;5053603;28;20066;-73
2023/06/28 01:46:24;;;;;;;6.40;3.50;;;;;;;16.69;89.15;101700.53;5061492;28;20615;-70
2023/06/28 01:48:49;;;;;;;7.63;3.90;;;;;;;16.76;89.88;101699.25;5060803;28;20017;-72
2023/06/28 01:51:15;;;;;;;5.28;3.90;;;;;;;16.72;89.51;101694.97;5058301;28;20040;-72
2023/06/28 01:53:41;;;;;;;8.55;4.50;;;;;;;16.66;89.20;101703.41;5059627;28;20495;-72
2023/06/28 01:56:06;;;;;;;6.35;3.58;;;;;;;16.65;88.91;101707.06;5052193;28;20039;-70
2023/06/28 01:58:31;;;;;;;8.25;3.70;;;;;;;16.62;84.38;101708.13;5060441;28;20536;-71
2023/06/28 02:00:57;;;;;;;5.80;3.20;;;;;;;16.58;81.78;101705.72;5060341;28;20028;-70
2023/06/28 02:03:22;;;;;;;6.05;2.97;;;;;;;16.57;81.66;101691.41;5051704;28;20032;-69
2023/06/28 02:05:48;;;;;;;7.97;3.00;;;;;;;16.56;82.51;101689.69;5054086;28;20032;-72
2023/06/28 02:08:13;;;;;;;4.45;2.63;;;;;;;16.60;82.73;101695.75;5058548;28;20456;-69
2023/06/28 02:10:38;;;;;;;4.75;2.75;;;;;;;16.53;79.57;101694.41;5055080;28;20555;-71
2023/06/28 02:13:04;;;;;;;6.78;3.00;;;;;;;16.54;80.73;101686.22;5056860;28;20076;-72
2023/06/28 02:15:29;;;;;;;4.93;2.63;;;;;;;16.54;78.80;101696.97;5054774;28;20035;-71
2023/06/28 02:17:56;;;;;;;9.35;3.63;;;;;;;16.53;79.41;101689.88;5050090;28;20056;-69
2023/06/28 02:20:22;;;;;;;9.15;3.33;;;;;;;16.56;81.30;101692.38;5053450;28;20099;-72
2023/06/28 02:22:47;;;;;;;5.50;2.72;;;;;;;16.46;79.97;101684.97;5060540;28;20036;-72
2023/06/28 02:25:12;;;;;;;4.85;2.47;;;;;;;16.42;80.09;101687.84;5061180;28;20319;-69
2023/06/28 02:27:38;;;;;;;5.75;2.65;;;;;;;16.32;79.51;101684.03;5054381;28;20024;-69
2023/06/28 02:30:03;;;;;;;4.35;2.20;;;;;;;16.26;80.38;101673.66;5054548;28;20102;-75
2023/06/28 02:32:32;;;;;;;5.82;2.70;;;;;;;16.17;80.71;101675.06;5054152;28;20533;-70
2023/06/28 02:34:57;;;;;;;6.22;2.70;;;;;;;16.14;81.82;101677.97;5047578;28;20267;-69
2023/06/28 02:37:24;;;;;;;4.78;2.53;;;;;;;16.11;81.99;101677.28;5051184;28;20032;-73
2023/06/28 02:39:49;;;;;;;5.10;2.83;;;;;;;16.11;82.93;101671.91;5053204;28;20035;-69
2023/06/28 02:42:14;;;;;;;6.15;2.42;;;;;;;16.14;84.10;101677.97;5059248;28;20032;-72
2023/06/28 02:44:40;;;;;;;5.53;2.75;;;;;;;16.10;83.21;101671.03;5060306;28;20047;-72
2023/06/28 02:47:05;;;;;;;4.10;2.47;;;;;;;16.05;84.81;101665.09;5048494;28;20130;-69
2023/06/28 02:49:30;;;;;;;5.43;2.83;;;;;;;16.07;86.07;101671.22;5060123;28;20012;-71
2023/06/28 02:51:56;;;;;;;5.60;2.97;;;;;;;16.02;88.84;101670.66;5051981;28;20025;-72
2023/06/28 02:54:22;;;;;;;5.18;3.22;;;;;;;15.79;92.65;101674.69;5053996;28;20470;-73
2023/06/28 02:56:47;;;;;;;9.32;3.30;;;;;;;15.45;95.52;101665.91;5050945;28;20095;-73
2023/06/28 02:59:13;;;;;;;5.47;3.00;;;;;;;15.29;99.08;101678.47;5053711;28;20037;-69
2023/06/28 03:01:38;;;;;;;7.38;3.53;;;;;;;14.99;99.24;101672.19;5056787;28;20072;-72
2023/06/28 03:04:03;;;;;;;6.40;3.80;;;;;;;14.90;100.00;101673.56;5063255;28;20108;-69
2023/06/28 03:06:29;;;;;;;6.13;4.05;;;;;;;14.79;100.00;101679.50;5060448;28;20035;-69
2023/06/28 03:08:55;;;;;;;6.15;3.85;;;;;;;14.71;100.00;101679.06;5048918;28;20028;-70
2023/06/28 03:11:20;;;;;;;6.88;3.83;;;;;;;14.70;100.00;101672.84;5058255;28;20037;-73
2023/06/28 03:13:45;;;;;;;6.53;3.70;;;;;;;14.78;100.00;101674.25;5059961;28;20063;-71
2023/06/28 03:16:11;;;;;;;8.80;4.32;;;;;;;14.85;100.00;101672.97;5058814;28;20074;-70
2023/06/28 03:18:36;;;;;;;8.65;3.97;;;;;;;14.91;100.00;101667.25;5058172;28;20045;-73
2023/06/28 03:21:02;;;;;;;7.40;4.32;;;;;;;15.01;100.00;101671.16;5057060;28;20035;-72
2023/06/28 03:23:28;;;;;;;5.57;4.38;;;;;;;15.12;100.00;101667.84;5060695;28;20023;-71
2023/06/28 03:25:54;;;;;;;7.72;4.53;;;;;;;15.29;100.00;101670.44;5054283;28;20020;-71
2023/06/28 03:28:19;;;;;;;7.63;4.70;;;;;;;15.39;100.00;101663.59;5063056;28;20017;-71
2023/06/28 03:30:44;;;;;;;8.07;4.80;;;;;;;15.52;100.00;101661.06;5063661;28;20163;-72
2023/06/28 03:33:10;;;;;;;7.93;4.75;;;;;;;15.49;100.00;101668.44;5065559;28;20047;-72
2023/06/28 03:35:35;;;;;;;8.13;4.68;;;;;;;15.50;100.00;101670.16;5057373;28;20032;-70
2023/06/28 03:38:01;;;;;;;7.13;4.45;;;;;;;15.61;100.00;101667.72;5067234;28;20025;-70
2023/06/28 03:40:28;;;;;;;9.10;4.72;;;;;;;15.67;100.00;101672.72;5072197;28;20036;-73
2023/06/28 03:42:53;;;;;;;8.23;4.43;;;;;;;15.65;100.00;101669.28;5055580;28;20032;-73
2023/06/28 03:45:19;;;;;;;8.75;5.10;;;;;;;15.66;100.00;101660.28;5059861;28;20047;-74
2023/06/28 03:47:44;;;;;;;10.57;5.55;;;;;;;15.64;100.00;101667.53;5073345;28;20028;-73
2023/06/28 03:50:10;;;;;;;8.27;5.47;;;;;;;15.63;100.00;101664.00;5064583;28;20414;-70
2023/06/28 03:52:36;;;;;;;9.60;5.57;;;;;;;15.61;100.00;101660.53;5053421;28;20032;-75
2023/06/28 03:55:02;;;;;;;11.20;5.50;;;;;;;15.58;100.00;101662.53;5060210;28;20050;-71
2023/06/28 03:57:28;;;;;;;7.97;5.38;;;;;;;15.55;100.00;101658.22;5057781;28;20036;-73
2023/06/28 03:59:54;;;;;;;8.65;5.07;;;;;;;15.57;100.00;101658.13;5060062;28;20046;-73
2023/06/28 04:02:20;;;;;;;9.68;6.13;;;;;;;15.58;100.00;101659.84;5057052;28;21555;-71
2023/06/28 04:04:45;;;;;;;6.68;5.65;;;;;;;15.62;100.00;101661.38;5058349;28;20127;-73
2023/06/28 04:07:10;;;;;;;8.27;5.60;;;;;;;15.63;100.00;101660.41;5055775;28;20036;-72
2023/06/28 04:09:37;;;;;;;13.38;6.35;;;;;;;15.60;100.00;101657.94;5053547;28;20071;-69
2023/06/28 04:12:06;;;;;;;10.32;6.22;;;;;;;15.62;100.00;101653.34;5068919;28;20031;-71
2023/06/28 04:14:32;;;;;;;8.85;6.28;;;;;;;15.67;100.00;101651.28;5054418;28;20063;-70
2023/06/28 04:16:57;;;;;;;9.88;6.75;;;;;;;15.70;100.00;101651.09;5055219;28;20499;-68
2023/06/28 04:19:22;;;;;;;8.50;6.68;;;;;;;15.66;100.00;101655.78;5071026;28;20123;-72
2023/06/28 04:21:48;;;;;;;9.65;6.25;;;;;;;15.66;100.00;101647.72;5045792;28;20037;-72
2023/06/28 04:24:13;;;;;;;9.77;6.32;;;;;;;15.67;100.00;101645.91;5058774;28;20028;-73
2023/06/28 04:26:39;;;;;;;9.02;6.40;;;;;;;15.64;100.00;101641.59;5060653;28;20040;-73
2023/06/28 04:29:04;;;;;;;7.68;6.10;;;;;;;15.66;100.00;101641.50;5055815;28;20020;-70
2023/06/28 04:31:29;;;;;;;8.48;5.97;;;;;;;15.65;100.00;101637.94;5056206;28;20032;-71
2023/06/28 04:33:59;;;;;;;10.07;7.18;;;;;;;15.72;100.00;101646.50;5055924;28;20024;-72
2023/06/28 04:36:25;;;;;;;8.95;6.55;;;;;;;15.73;100.00;101645.56;5061563;28;20056;-71
2023/06/28 04:38:54;;;;;;;10.15;6.72;;;;;;;15.64;100.00;101638.03;5046423;28;20025;-73
2023/06/28 04:41:26;;;;;;;11.40;7.32;;;;;;;15.68;100.00;101640.47;5054231;28;20036;-73
2023/06/28 04:43:55;;;;;;;8.68;6.80;;;;;;;15.74;100.00;101641.91;5054990;28;20032;-71
2023/06/28 04:46:27;;;;;;;9.63;6.80;;;;;;;15.77;100.00;101646.25;5056900;28;20479;-72
2023/06/28 04:48:53;;;;;;;9.15;6.65;;;;;;;15.82;100.00;101642.31;5062690;28;20575;-71
2023/06/28 04:51:20;;;;;;;10.38;6.28;;;;;;;15.81;100.00;101637.91;5054797;28;20036;-71
2023/06/28 04:53:46;;;;;;;9.30;6.30;;;;;;;15.86;100.00;101641.16;5063732;28;20075;-69
2023/06/28 04:56:12;;;;;;;9.00;6.53;;;;;;;15.93;100.00;101641.69;5061706;28;20048;-71
2023/06/28 04:58:37;;;;;;;9.38;6.28;;;;;;;15.94;100.00;101643.41;5052052;28;20074;-72
2023/06/28 05:01:07;;;;;;;8.40;5.75;;;;;;;15.99;100.00;101651.16;5054925;28;20070;-70
2023/06/28 05:03:34;;;;;;;8.27;6.20;;;;;;;16.08;100.00;101650.59;5063330;28;20085;-72
2023/06/28 05:06:02;;;;;;;9.27;6.63;;;;;;;16.09;100.00;101649.63;5062633;28;20036;-72
2023/06/28 05:08:27;;;;;;;8.88;6.30;;;;;;;16.14;100.00;101659.16;5064732;28;20252;-73
2023/06/28 05:10:53;;;;;;;9.55;6.28;;;;;;;16.05;99.06;101651.69;5065825;28;20063;-73
2023/06/28 05:13:19;;;;;;;13.07;7.32;;;;;;;16.10;100.00;101648.69;5052924;28;20251;-71
2023/06/28 05:15:44;;;;;;;9.05;6.22;;;;;;;16.10;100.00;101651.38;5049599;28;20018;-71
2023/06/28 05:18:09;;;;;;;9.50;6.50;;;;;;;16.09;100.00;101646.94;5052783;28;20665;-71
2023/06/28 05:20:35;;;;;;;7.80;6.40;;;;;;;16.05;98.90;101651.69;5046230;28;20035;-72
2023/06/28 05:23:13;;;;;;;11.02;6.90;;;;;;;16.01;98.51;101651.94;5053099;28;20098;-71
2023/06/28 05:25:39;;;;;;;9.02;6.88;;;;;;;15.90;97.29;101637.34;5056249;28;20146;-71
2023/06/28 05:28:06;;;;;;;8.38;6.47;;;;;;;15.88;98.33;101643.75;5064957;28;20021;-73
2023/06/28 05:30:32;;;;;;;9.93;7.22;;;;;;;15.93;100.00;101642.53;5056685;28;20082;-70
2023/06/28 05:32:58;;;;;;;9.00;6.97;;;;;;;15.99;99.74;101649.34;5048087;28;20079;-70
2023/06/28 05:35:24;;;;;;;8.48;6.75;;;;;;;16.02;99.17;101645.63;5069265;28;20139;-73
2023/06/28 05:37:50;;;;;;;11.65;7.03;;;;;;;16.03;100.00;101648.19;5067039;28;20035;-72
2023/06/28 05:40:15;;;;;;;10.82;7.60;;;;;;;16.03;100.00;101641.97;5067840;28;20428;-72
2023/06/28 05:42:41;;;;;;;10.98;6.97;;;;;;;16.14;100.00;101650.25;5060248;28;20028;-70
2023/06/28 05:45:07;;;;;;;9.48;7.72;;;;;;;16.20;100.00;101652.53;5057176;28;20068;-73
2023/06/28 05:47:36;;;;;;;12.60;7.28;;;;;;;16.16;98.96;101640.25;5058184;28;20040;-72
2023/06/28 05:50:01;;;;;;;11.18;7.15;;;;;;;16.23;100.00;101648.81;5068983;28;20021;-70
2023/06/28 05:52:26;;;;;;;13.65;7.57;;;;;;;16.30;99.46;101644.75;5064944;28;20120;-73
2023/06/28 05:54:52;;;;;;;9.90;6.88;;;;;;;16.22;98.09;101642.59;5067409;28;20064;-70
2023/06/28 05:57:17;;;;;;;10.10;7.10;;;;;;;16.33;100.00;101644.59;5068648;28;20035;-71
2023/06/28 05:59:42;;;;;;;10.25;7.35;;;;;;;16.30;99.12;101642.97;5068031;28;20502;-73
2023/06/28 06:02:08;;;;;;;11.90;7.13;;;;;;;16.29;97.57;101646.59;5060596;28;20379;-70
2023/06/28 06:04:34;;;;;;;10.48;7.05;;;;;;;16.26;97.29;101643.22;5057876;28;20028;-70
2023/06/28 06:06:59;;;;;;;11.18;7.57;;;;;;;16.23;96.95;101638.06;5049141;28;20026;-73
2023/06/28 06:09:26;;;;;;;8.98;6.90;;;;;;;16.24;97.67;101632.59;5056589;28;20024;-71
2023/06/28 06:11:51;;;;;;;12.32;7.93;;;;;;;16.25;97.30;101641.50;5061632;28;20029;-75
2023/06/28 06:14:16;;;;;;;10.65;7.22;;;;;;;16.34;98.93;101636.41;5061772;28;20074;-74
2023/06/28 06:16:42;;;;;;;8.18;6.63;;;;;;;16.36;97.62;101631.81;5058672;28;20474;-73
2023/06/28 06:19:07;;;;;;;10.50;7.20;;;;;;;16.44;98.09;101636.72;5048366;28;20517;-73
2023/06/28 06:21:32;;;;;;;9.85;7.35;;;;;;;16.42;97.26;101633.25;5059487;28;20494;-74
2023/06/28 06:23:59;;;;;;;9.52;7.45;;;;;;;16.46;97.24;101632.09;5052739;28;20047;-72
2023/06/28 06:26:27;;;;;;;9.27;6.78;;;;;;;16.44;96.20;101642.09;5052533;28;20055;-70
2023/06/28 06:28:52;;;;;;;9.70;7.53;;;;;;;16.48;96.60;101640.09;5055837;28;20021;-74
2023/06/28 06:31:18;;;;;;;9.93;7.05;;;;;;;16.48;98.96;101643.63;5060265;28;20051;-74
2023/06/28 06:33:43;;;;;;;10.70;7.03;;;;;;;16.36;96.20;101639.88;5047057;28;20028;-73
2023/06/28 06:36:09;;;;;;;9.10;7.70;;;;;;;16.34;96.86;101639.09;5048161;28;20210;-73
2023/06/28 06:38:37;;;;;;;12.90;7.25;;;;;;;16.41;98.15;101644.97;5062600;28;20506;-71
2023/06/28 06:41:03;;;;;;;10.07;6.97;;;;;;;16.59;98.75;101642.94;5053312;28;20037;-74
2023/06/28 06:43:28;;;;;;;10.45;7.35;;;;;;;16.69;97.77;101630.66;5061128;28;20093;-75
2023/06/28 06:45:54;;;;;;;8.93;6.82;;;;;;;16.80;96.58;101638.03;5058120;28;20025;-71
2023/06/28 06:48:19;;;;;;;12.30;7.28;;;;;;;16.82;95.78;101637.00;5059472;28;20025;-71
2023/06/28 06:50:45;;;;;;;12.73;7.10;;;;;;;16.86;95.70;101635.84;5052288;28;20021;-74
2023/06/28 06:53:10;;;;;;;8.65;7.32;;;;;;;16.92;95.35;101637.25;5056816;28;20187;-72
2023/06/28 06:55:35;;;;;;;11.48;7.13;;;;;;;17.06;96.98;101641.75;5053438;28;20046;-71
2023/06/28 06:58:01;;;;;;;9.68;6.88;;;;;;;17.00;93.92;101643.00;5054525;28;20482;-73
2023/06/28 07:00:26;;;;;;;12.73;7.18;;;;;;;16.97;93.85;101642.34;5045098;28;20013;-73
2023/06/28 07:02:51;;;;;;;10.13;6.78;;;;;;;16.97;94.13;101640.53;5047570;28;20107;-74
2023/06/28 07:05:18;;;;;;;13.20;8.20;;;;;;;16.97;94.37;101653.97;5055861;28;20025;-72
2023/06/28 07:07:43;;;;;;;11.40;7.22;;;;;;;17.08;95.95;101650.56;5044593;28;20032;-73
2023/06/28 07:10:09;;;;;;;10.48;7.10;;;;;;;17.10;94.70;101654.91;5044073;28;20422;-73
2023/06/28 07:12:37;;;;;;;12.70;7.40;;;;;;;17.12;93.58;101654.78;5049843;28;20489;-70
2023/06/28 07:15:02;;;;;;;9.38;7.13;;;;;;;17.08;93.37;101654.13;5051097;28;20055;-73
2023/06/28 07:17:28;;;;;;;10.98;7.65;;;;;;;17.20;93.81;101656.97;5051926;28;20080;-71
2023/06/28 07:19:53;;;;;;;14.00;7.93;;;;;;;17.21;91.18;101653.31;5042554;28;20025;-74
2023/06/28 07:22:18;;;;;;;9.70;6.80;;;;;;;17.23;90.51;101651.41;5043677;28;20436;-74
2023/06/28 07:24:44;;;;;;;9.77;7.07;;;;;;;17.16;91.22;101661.69;5043557;28;20029;-73
2023/06/28 07:27:09;;;;;;;8.98;6.82;;;;;;;17.13;90.74;101659.19;5043856;28;20107;-73
2023/06/28 07:29:37;;;;;;;11.45;7.47;;;;;;;17.20;91.89;101657.84;5048036;28;20031;-70
2023/06/28 07:32:03;;;;;;;10.15;7.32;;;;;;;17.26;91.60;101656.56;5043899;28;20565;-73
2023/06/28 07:34:28;;;;;;;14.68;7.13;;;;;;;17.34;93.21;101643.47;5043630;28;20176;-70
2023/06/28 07:36:54;;;;;;;12.23;7.72;;;;;;;17.46;91.22;101647.16;5054086;28;20029;-74
2023/06/28 07:39:19;;;;;;;8.40;6.82;;;;;;;17.65;91.23;101653.06;5056694;28;20511;-75
2023/06/28 07:41:45;;;;;;;11.48;6.97;;;;;;;17.78;92.25;101656.66;5061066;28;20035;-74
2023/06/28 07:44:10;;;;;;;9.00;6.53;;;;;;;17.82;90.30;101660.00;5059979;28;20035;-73
2023/06/28 07:46:35;;;;;;;9.02;6.80;;;;;;;17.78;88.57;101653.13;5043850;28;20438;-73
2023/06/28 07:49:01;;;;;;;11.85;7.10;;;;;;;17.75;87.26;101659.56;5055530;28;20120;-73
2023/06/28 07:51:26;;;;;;;10.30;6.13;;;;;;;17.70;88.32;101656.28;5056967;28;20360;-74
2023/06/28 07:53:52;;;;;;;10.10;6.45;;;;;;;17.68;88.64;101660.91;5050066;28;20070;-71
2023/06/28 07:56:19;;;;;;;14.38;7.47;;;;;;;17.71;88.19;101657.16;5055731;28;20484;-72
2023/06/28 07:58:45;;;;;;;10.43;6.90;;;;;;;17.79;89.04;101650.31;5047674;28;20087;-74
2023/06/28 08:01:10;;;;;;;11.07;6.55;;;;;;;17.97;87.91;101652.69;5042507;28;20029;-71
2023/06/28 08:03:35;;;;;;;10.38;6.50;;;;;;;17.98;87.26;101655.31;5042710;28;20046;-74
2023/06/28 08:06:01;;;;;;;9.32;5.97;;;;;;;18.04;85.51;101654.88;5043931;28;20108;-73
2023/06/28 08:08:26;;;;;;;7.25;5.57;;;;;;;18.10;84.71;101654.44;5043027;28;20240;-71
2023/06/28 08:10:52;;;;;;;9.88;5.35;;;;;;;18.12;85.40;101659.72;5048816;28;20028;-73
2023/06/28 08:13:17;;;;;;;10.65;6.15;;;;;;;18.22;86.14;101657.25;5051904;28;20039;-73
2023/06/28 08:15:43;;;;;;;12.05;6.18;;;;;;;18.23;85.07;101650.91;5045589;28;20117;-73
2023/06/28 08:18:09;;;;;;;10.18;6.10;;;;;;;18.23;81.76;101653.59;5042544;28;20049;-73
2023/06/28 08:20:35;;;;;;;7.65;5.75;;;;;;;18.18;82.93;101659.28;5043519;28;20063;-70
2023/06/28 08:23:03;;;;;;;9.35;5.25;;;;;;;18.27;86.34;101663.19;5043183;28;20080;-72
2023/06/28 08:25:28;;;;;;;9.77;5.75;;;;;;;18.29;84.83;101664.78;5042973;28;20472;-74
2023/06/28 08:27:53;;;;;;;9.60;5.60;;;;;;;18.28;84.12;101663.06;5042206;28;20036;-71
2023/06/28 08:30:19;;;;;;;10.55;5.32;;;;;;;18.29;84.73;101663.94;5050605;28;20037;-73
2023/06/28 08:32:45;;;;;;;12.02;6.03;;;;;;;18.32;82.41;101669.13;5047488;28;20024;-73
2023/06/28 08:35:10;;;;;;;9.10;5.68;;;;;;;18.41;82.05;101658.53;5042932;28;20029;-72
2023/06/28 08:37:36;;;;;;;9.52;5.38;;;;;;;18.66;80.13;101659.47;5042814;28;20025;-73
2023/06/28 08:40:01;;;;;;;9.75;5.28;;;;;;;18.77;79.32;101658.72;5048308;28;20111;-72
2023/06/28 08:42:29;;;;;;;9.32;5.35;;;;;;;18.88;78.54;101665.06;5046316;28;20052;-75
2023/06/28 08:44:56;;;;;;;10.45;6.13;;;;;;;18.95;76.88;101660.09;5042989;28;20249;-73
2023/06/28 08:47:21;;;;;;;8.98;5.22;;;;;;;18.90;76.15;101657.75;5049054;28;20035;-75
2023/06/28 08:49:47;;;;;;;9.98;5.40;;;;;;;18.80;77.22;101653.13;5055157;28;20025;-71
2023/06/28 08:52:15;;;;;;;8.50;5.15;;;;;;;18.75;78.02;101661.53;5042611;28;20021;-73
2023/06/28 08:54:42;;;;;;;8.52;6.00;;;;;;;18.89;78.71;101661.41;5042104;28;20025;-72
2023/06/28 08:57:08;;;;;;;10.68;5.28;;;;;;;19.21;78.57;101657.31;5045637;28;20099;-74
2023/06/28 08:59:33;;;;;;;9.00;5.68;;;;;;;19.59;76.76;101657.13;5043901;28;20123;-74
2023/06/28 09:02:01;;;;;;;8.18;5.90;;;;;;;19.97;74.99;101656.91;5054431;28;20017;-71
2023/06/28 09:04:27;;;;;;;7.68;5.22;;;;;;;20.14;73.95;101656.44;5045593;28;20093;-74
2023/06/28 09:06:52;;;;;;;7.80;5.28;;;;;;;20.28;72.99;101657.22;5052818;28;20479;-73
2023/06/28 09:09:18;;;;;;;8.23;5.50;;;;;;;20.35;72.33;101656.59;5043044;28;20016;-74
2023/06/28 09:11:44;;;;;;;7.20;5.13;;;;;;;20.47;70.30;101654.78;5046863;28;20165;-74
2023/06/28 09:14:10;;;;;;;8.68;4.90;;;;;;;20.62;70.79;101653.59;5046290;28;20028;-74
2023/06/28 09:16:35;;;;;;;6.55;4.95;;;;;;;20.83;71.64;101650.13;5045808;28;20032;-71
2023/06/28 09:19:00;;;;;;;8.05;5.15;;;;;;;20.98;69.17;101648.84;5046575;28;20507;-72
2023/06/28 09:21:28;;;;;;;8.32;5.05;;;;;;;20.98;68.37;101643.44;5057859;28;20036;-71
2023/06/28 09:23:54;;;;;;;6.78;4.43;;;;;;;20.92;67.53;101635.00;5052392;28;20029;-75
2023/06/28 09:26:20;;;;;;;10.43;4.70;;;;;;;20.92;68.63;101638.56;5045514;28;20031;-74
2023/06/28 09:28:45;;;;;;;7.50;4.30;;;;;;;20.86;67.06;101636.38;5046074;28;20039;-71
2023/06/28 09:31:17;;;;;;;8.00;4.63;;;;;;;20.96;67.35;101639.16;5046245;28;20487;-74
2023/06/28 09:33:42;;;;;;;8.00;4.35;;;;;;;20.94;67.37;101641.97;5046067;28;20028;-75
2023/06/28 09:36:10;;;;;;;6.53;4.25;;;;;;;20.76;64.96;101635.38;5060981;28;20130;-73
2023/06/28 09:38:44;;;;;;;6.97;4.35;;;;;;;20.74;67.66;101635.50;5056622;28;20021;-71
2023/06/28 09:41:09;;;;;;;6.80;4.40;;;;;;;20.93;67.38;101634.84;5046442;28;20056;-74
2023/06/28 09:43:37;;;;;;;5.85;4.00;;;;;;;21.10;66.76;101647.84;5046588;28;20031;-74
2023/06/28 09:46:15;;;;;;;6.03;3.80;;;;;;;21.33;65.58;101632.44;5046440;28;20110;-73
2023/06/28 09:48:51;;;;;;;5.88;4.18;;;;;;;21.52;65.67;101631.75;5048922;28;20032;-74
2023/06/28 09:51:17;;;;;;;6.85;4.15;;;;;;;21.44;63.28;101638.78;5046074;28;20400;-71
2023/06/28 09:53:50;;;;;;;6.03;3.70;;;;;;;21.20;64.31;101637.13;5045271;28;20063;-73
2023/06/28 09:56:19;;;;;;;9.05;3.70;;;;;;;21.32;64.54;101638.84;5051500;28;20052;-74
2023/06/28 09:58:47;;;;;;;7.05;3.95;;;;;;;21.52;62.88;101641.72;5051343;28;20025;-72
2023/06/28 10:01:15;;;;;;;9.65;3.90;;;;;;;21.99;62.70;101629.53;5049789;28;20028;-72
2023/06/28 10:03:42;;;;;;;6.55;3.47;;;;;;;22.53;59.24;101631.13;5050400;28;20063;-71
2023/06/28 10:06:09;;;;;;;6.40;3.83;;;;;;;23.49;54.82;101634.19;5052867;28;20035;-73
2023/06/28 10:08:35;;;;;;;6.38;3.63;;;;;;;23.53;54.85;101632.91;5049865;28;20435;-73
2023/06/28 10:11:00;;;;;;;9.15;3.60;;;;;;;23.35;54.26;101630.06;5045310;28;20037;-74
2023/06/28 10:13:27;;;;;;;9.27;3.75;;;;;;;23.35;55.21;101630.06;5044683;28;20025;-72
2023/06/28 10:16:07;;;;;;;8.02;3.65;;;;;;;23.39;55.34;101630.63;5045285;28;20105;-75
2023/06/28 10:18:32;;;;;;;7.85;3.95;;;;;;;23.54;54.37;101623.78;5058201;28;20041;-73
2023/06/28 10:20:59;;;;;;;7.15;4.20;;;;;;;24.01;53.79;101624.75;5044919;28;20099;-73
2023/06/28 10:23:26;;;;;;;6.75;4.00;;;;;;;24.15;51.77;101615.25;5054316;28;20495;-74
2023/06/28 10:25:53;;;;;;;7.85;3.83;;;;;;;24.30;52.22;101618.38;5062432;28;20020;-73
2023/06/28 10:28:19;;;;;;;7.35;3.38;;;;;;;24.43;51.86;101616.19;5068997;28;20402;-73
2023/06/28 10:30:45;;;;;;;5.43;3.05;;;;;;;24.66;50.32;101611.22;5049328;28;20028;-76
2023/06/28 10:33:13;;;;;;;6.10;3.30;;;;;;;25.23;50.10;101608.31;5056846;28;20069;-73
2023/06/28 10:35:39;;;;;;;7.55;3.33;;;;;;;25.15;47.89;101617.25;5044848;28;20029;-74
2023/06/28 10:38:05;;;;;;;7.25;3.70;;;;;;;25.38;48.25;101616.81;5046370;28;20032;-74
2023/06/28 10:40:31;;;;;;;8.27;3.38;;;;;;;25.29;46.66;101614.00;5051348;28;20391;-76
2023/06/28 10:42:56;;;;;;;6.88;3.30;;;;;;;25.06;48.06;101618.16;5057561;28;20069;-73
2023/06/28 10:45:37;;;;;;;8.20;3.15;;;;;;;25.08;49.10;101622.47;5047153;28;20529;-71
2023/06/28 10:48:04;;;;;;;7.15;3.85;;;;;;;24.73;47.70;101625.94;5062137;28;20494;-71
2023/06/28 10:50:39;;;;;;;6.90;3.35;;;;;;;24.49;49.40;101634.63;5056501;28;20095;-73
2023/06/28 10:53:05;;;;;;;6.80;3.10;;;;;;;24.46;48.76;101620.50;5061791;28;20037;-72
2023/06/28 10:55:32;;;;;;;8.35;3.50;;;;;;;24.59;49.44;101626.44;5062231;28;20032;-72
2023/06/28 10:58:08;;;;;;;7.72;2.95;;;;;;;24.83;48.56;101613.16;5053382;28;20055;-74
2023/06/28 11:00:37;;;;;;;7.72;3.55;;;;;;;24.81;47.97;101614.28;5047351;28;20530;-73
2023/06/28 11:03:09;;;;;;;6.25;3.10;;;;;;;24.84;47.51;101614.00;5054853;28;20413;-71
2023/06/28 11:05:40;;;;;;;7.80;3.22;;;;;;;24.93;48.62;101606.78;5055532;28;20029;-72
2023/06/28 11:08:16;;;;;;;7.72;3.30;;;;;;;25.13;48.22;101597.50;5060940;28;20032;-71
2023/06/28 11:10:44;;;;;;;10.65;3.22;;;;;;;25.23;46.71;101601.00;5043845;28;20025;-70
2023/06/28 11:13:15;;;;;;;22.85;5.00;;;;;;;25.73;48.68;101597.69;5058226;28;20039;-71
2023/06/28 11:15:45;;;;;;;122.07;14.63;;;;;;;26.35;45.14;101589.41;5043033;28;20060;-71
2023/06/28 11:18:20;;;;;;;15.68;4.30;;;;;;;26.56;44.88;101602.69;5052785;28;20071;-73